Richland, Missouri
Current Conditions -  °F | °C
As of 4:58 AM on Wednesday 26 Nov 2014 (Local Time) from KTBN Reporting Station
Overcast Overcast  
Wind Chill: 23°   Ceiling: 9000
Heat Index: 30°   Visibility: 10mi
Dew Point: 22°   Wind: 7mph
Humidity: 71%   Direction: 140°SE
Pressure: 29.99"   Gusts: NA
Location:  37.86°N, 92.4°W
Report Text: KTBN 261058Z AUTO 14006KT 10SM OVC090 M01/M06 A2999 RMK AO2 SLP167 T10111058
Loading
Personal Weather Stations






























Interactive Weather Map New forecast layout! Learn more

10-Day Weather Forecast

Advertisements
Track Severe Weather on mobile